sensor_id;sensor_type;location;lat;lon;timestamp;P1;durP1;ratioP1;P2;durP2;ratioP2
4597;SDS011;62772;48.646;8.906;2023-04-07T00:02:03;14.23;;;8.80;;
4597;SDS011;62772;48.646;8.906;2023-04-07T00:07:04;18.50;;;9.40;;
4597;SDS011;62772;48.646;8.906;2023-04-07T00:12:04;21.30;;;10.80;;
4597;SDS011;62772;48.646;8.906;2023-04-07T00:17:05;19.13;;;10.27;;
4597;SDS011;62772;48.646;8.906;2023-04-07T00:22:05;18.27;;;10.30;;
4597;SDS011;62772;48.646;8.906;2023-04-07T00:27:05;20.93;;;10.10;;
4597;SDS011;62772;48.646;8.906;2023-04-07T00:32:06;19.60;;;10.27;;
4597;SDS011;62772;48.646;8.906;2023-04-07T00:37:06;16.30;;;9.87;;
4597;SDS011;62772;48.646;8.906;2023-04-07T00:42:07;18.93;;;10.90;;
4597;SDS011;62772;48.646;8.906;2023-04-07T00:47:07;19.40;;;10.43;;
4597;SDS011;62772;48.646;8.906;2023-04-07T00:52:08;16.90;;;9.33;;
4597;SDS011;62772;48.646;8.906;2023-04-07T00:57:10;20.17;;;10.30;;
4597;SDS011;62772;48.646;8.906;2023-04-07T01:02:22;19.90;;;11.13;;
4597;SDS011;62772;48.646;8.906;2023-04-07T01:07:36;19.43;;;11.23;;
4597;SDS011;62772;48.646;8.906;2023-04-07T01:12:51;17.70;;;9.90;;
4597;SDS011;62772;48.646;8.906;2023-04-07T01:18:12;21.20;;;11.30;;
4597;SDS011;62772;48.646;8.906;2023-04-07T01:34:16;20.63;;;10.43;;
4597;SDS011;62772;48.646;8.906;2023-04-07T01:39:17;22.63;;;11.60;;
4597;SDS011;62772;48.646;8.906;2023-04-07T01:44:20;23.20;;;12.93;;
4597;SDS011;62772;48.646;8.906;2023-04-07T01:49:21;22.97;;;11.40;;
4597;SDS011;62772;48.646;8.906;2023-04-07T01:54:24;19.40;;;11.60;;
4597;SDS011;62772;48.646;8.906;2023-04-07T01:59:29;24.40;;;11.60;;
4597;SDS011;62772;48.646;8.906;2023-04-07T02:04:38;23.73;;;12.20;;
4597;SDS011;62772;48.646;8.906;2023-04-07T02:09:49;19.73;;;11.77;;
4597;SDS011;62772;48.646;8.906;2023-04-07T02:14:53;24.00;;;12.33;;
4597;SDS011;62772;48.646;8.906;2023-04-07T02:19:54;21.67;;;11.57;;
4597;SDS011;62772;48.646;8.906;2023-04-07T02:24:56;27.00;;;12.20;;
4597;SDS011;62772;48.646;8.906;2023-04-07T02:30:00;20.90;;;11.93;;
4597;SDS011;62772;48.646;8.906;2023-04-07T02:35:00;17.70;;;11.20;;
4597;SDS011;62772;48.646;8.906;2023-04-07T02:40:01;27.30;;;12.80;;
4597;SDS011;62772;48.646;8.906;2023-04-07T02:45:03;23.97;;;13.33;;
4597;SDS011;62772;48.646;8.906;2023-04-07T02:50:04;23.60;;;12.00;;
4597;SDS011;62772;48.646;8.906;2023-04-07T02:55:08;24.47;;;12.77;;
4597;SDS011;62772;48.646;8.906;2023-04-07T03:00:09;22.53;;;12.20;;
4597;SDS011;62772;48.646;8.906;2023-04-07T03:05:39;25.17;;;13.40;;
4597;SDS011;62772;48.646;8.906;2023-04-07T03:10:41;26.37;;;13.53;;
4597;SDS011;62772;48.646;8.906;2023-04-07T03:15:43;27.30;;;13.30;;
4597;SDS011;62772;48.646;8.906;2023-04-07T03:20:46;24.13;;;13.80;;
4597;SDS011;62772;48.646;8.906;2023-04-07T03:25:48;26.13;;;13.30;;
4597;SDS011;62772;48.646;8.906;2023-04-07T03:30:49;22.37;;;12.00;;
4597;SDS011;62772;48.646;8.906;2023-04-07T03:35:52;26.73;;;14.10;;
4597;SDS011;62772;48.646;8.906;2023-04-07T03:40:54;29.67;;;13.53;;
4597;SDS011;62772;48.646;8.906;2023-04-07T03:45:55;25.37;;;14.00;;
4597;SDS011;62772;48.646;8.906;2023-04-07T03:50:57;25.30;;;13.50;;
4597;SDS011;62772;48.646;8.906;2023-04-07T03:55:59;24.33;;;13.53;;
4597;SDS011;62772;48.646;8.906;2023-04-07T04:01:20;28.50;;;15.37;;
4597;SDS011;62772;48.646;8.906;2023-04-07T04:06:23;23.00;;;13.67;;
4597;SDS011;62772;48.646;8.906;2023-04-07T04:11:26;26.13;;;13.90;;
4597;SDS011;62772;48.646;8.906;2023-04-07T04:16:31;27.00;;;14.43;;
4597;SDS011;62772;48.646;8.906;2023-04-07T04:21:36;25.57;;;13.70;;
4597;SDS011;62772;48.646;8.906;2023-04-07T04:26:37;29.20;;;13.93;;
4597;SDS011;62772;48.646;8.906;2023-04-07T04:31:44;25.13;;;14.30;;
4597;SDS011;62772;48.646;8.906;2023-04-07T04:36:45;27.57;;;15.13;;
4597;SDS011;62772;48.646;8.906;2023-04-07T04:41:45;24.53;;;13.60;;
4597;SDS011;62772;48.646;8.906;2023-04-07T04:46:47;29.30;;;15.60;;
4597;SDS011;62772;48.646;8.906;2023-04-07T04:51:48;27.03;;;14.90;;
4597;SDS011;62772;48.646;8.906;2023-04-07T04:56:50;28.70;;;14.53;;
4597;SDS011;62772;48.646;8.906;2023-04-07T05:01:51;27.50;;;14.87;;
4597;SDS011;62772;48.646;8.906;2023-04-07T05:06:52;26.37;;;14.93;;
4597;SDS011;62772;48.646;8.906;2023-04-07T05:11:56;24.97;;;14.20;;
4597;SDS011;62772;48.646;8.906;2023-04-07T05:16:58;26.07;;;14.53;;
4597;SDS011;62772;48.646;8.906;2023-04-07T05:22:02;30.37;;;14.70;;
4597;SDS011;62772;48.646;8.906;2023-04-07T05:27:06;26.40;;;13.80;;
4597;SDS011;62772;48.646;8.906;2023-04-07T05:32:07;28.80;;;15.73;;
4597;SDS011;62772;48.646;8.906;2023-04-07T05:37:09;29.07;;;15.20;;
4597;SDS011;62772;48.646;8.906;2023-04-07T05:42:10;28.20;;;15.10;;
4597;SDS011;62772;48.646;8.906;2023-04-07T05:47:12;30.27;;;15.90;;
4597;SDS011;62772;48.646;8.906;2023-04-07T05:52:14;35.90;;;15.87;;
4597;SDS011;62772;48.646;8.906;2023-04-07T05:57:19;26.70;;;14.60;;
4597;SDS011;62772;48.646;8.906;2023-04-07T06:02:21;26.57;;;15.47;;
4597;SDS011;62772;48.646;8.906;2023-04-07T06:07:21;26.77;;;14.73;;
4597;SDS011;62772;48.646;8.906;2023-04-07T06:12:22;31.30;;;15.47;;
4597;SDS011;62772;48.646;8.906;2023-04-07T06:17:23;27.27;;;15.57;;
4597;SDS011;62772;48.646;8.906;2023-04-07T06:22:23;33.20;;;14.90;;
4597;SDS011;62772;48.646;8.906;2023-04-07T06:27:23;28.17;;;14.27;;
4597;SDS011;62772;48.646;8.906;2023-04-07T06:32:24;27.27;;;15.70;;
4597;SDS011;62772;48.646;8.906;2023-04-07T06:37:25;34.80;;;19.20;;
4597;SDS011;62772;48.646;8.906;2023-04-07T06:42:27;26.23;;;14.57;;
4597;SDS011;62772;48.646;8.906;2023-04-07T06:47:39;28.43;;;14.80;;
4597;SDS011;62772;48.646;8.906;2023-04-07T06:52:40;24.10;;;14.03;;
4597;SDS011;62772;48.646;8.906;2023-04-07T06:57:40;26.73;;;13.17;;
4597;SDS011;62772;48.646;8.906;2023-04-07T07:02:41;26.00;;;13.10;;
4597;SDS011;62772;48.646;8.906;2023-04-07T07:07:42;21.03;;;12.07;;
4597;SDS011;62772;48.646;8.906;2023-04-07T07:12:42;25.20;;;12.13;;
4597;SDS011;62772;48.646;8.906;2023-04-07T07:17:43;21.73;;;12.63;;
4597;SDS011;62772;48.646;8.906;2023-04-07T07:22:43;22.30;;;12.40;;
4597;SDS011;62772;48.646;8.906;2023-04-07T07:27:44;17.47;;;11.80;;
4597;SDS011;62772;48.646;8.906;2023-04-07T07:32:44;22.00;;;12.20;;
4597;SDS011;62772;48.646;8.906;2023-04-07T07:37:45;23.60;;;12.60;;
4597;SDS011;62772;48.646;8.906;2023-04-07T07:42:46;18.03;;;11.27;;
4597;SDS011;62772;48.646;8.906;2023-04-07T07:47:47;19.30;;;11.70;;
4597;SDS011;62772;48.646;8.906;2023-04-07T07:52:48;22.07;;;11.40;;
4597;SDS011;62772;48.646;8.906;2023-04-07T07:57:48;17.43;;;10.83;;
4597;SDS011;62772;48.646;8.906;2023-04-07T08:02:49;17.03;;;9.67;;
4597;SDS011;62772;48.646;8.906;2023-04-07T08:07:49;17.10;;;10.87;;
4597;SDS011;62772;48.646;8.906;2023-04-07T08:12:52;16.33;;;9.53;;
4597;SDS011;62772;48.646;8.906;2023-04-07T08:17:52;19.50;;;10.20;;
4597;SDS011;62772;48.646;8.906;2023-04-07T08:22:53;17.70;;;10.20;;
4597;SDS011;62772;48.646;8.906;2023-04-07T08:27:53;15.10;;;10.40;;
4597;SDS011;62772;48.646;8.906;2023-04-07T08:32:54;16.63;;;9.07;;
4597;SDS011;62772;48.646;8.906;2023-04-07T08:37:55;15.77;;;9.27;;
4597;SDS011;62772;48.646;8.906;2023-04-07T08:42:56;13.00;;;7.73;;
4597;SDS011;62772;48.646;8.906;2023-04-07T08:48:01;14.07;;;6.67;;
4597;SDS011;62772;48.646;8.906;2023-04-07T08:53:08;9.20;;;5.50;;
4597;SDS011;62772;48.646;8.906;2023-04-07T08:58:12;13.63;;;5.93;;
4597;SDS011;62772;48.646;8.906;2023-04-07T09:03:15;15.00;;;6.83;;
4597;SDS011;62772;48.646;8.906;2023-04-07T09:08:16;14.63;;;7.60;;
4597;SDS011;62772;48.646;8.906;2023-04-07T09:13:17;13.73;;;7.70;;
4597;SDS011;62772;48.646;8.906;2023-04-07T09:18:18;11.70;;;7.37;;
4597;SDS011;62772;48.646;8.906;2023-04-07T09:23:26;8.73;;;5.60;;
4597;SDS011;62772;48.646;8.906;2023-04-07T09:28:41;11.60;;;5.40;;
4597;SDS011;62772;48.646;8.906;2023-04-07T09:33:42;8.77;;;5.10;;
4597;SDS011;62772;48.646;8.906;2023-04-07T09:38:43;9.80;;;5.10;;
4597;SDS011;62772;48.646;8.906;2023-04-07T09:43:45;8.27;;;4.60;;
4597;SDS011;62772;48.646;8.906;2023-04-07T09:48:46;9.13;;;5.30;;
4597;SDS011;62772;48.646;8.906;2023-04-07T09:53:48;10.40;;;5.50;;
4597;SDS011;62772;48.646;8.906;2023-04-07T09:58:50;7.90;;;4.67;;
4597;SDS011;62772;48.646;8.906;2023-04-07T10:03:50;6.97;;;4.43;;
4597;SDS011;62772;48.646;8.906;2023-04-07T10:08:52;8.53;;;5.17;;
4597;SDS011;62772;48.646;8.906;2023-04-07T10:13:53;10.97;;;6.57;;
4597;SDS011;62772;48.646;8.906;2023-04-07T10:18:53;14.10;;;7.10;;
4597;SDS011;62772;48.646;8.906;2023-04-07T10:23:58;16.30;;;9.50;;
4597;SDS011;62772;48.646;8.906;2023-04-07T10:29:19;14.27;;;8.50;;
4597;SDS011;62772;48.646;8.906;2023-04-07T10:45:17;17.00;;;8.53;;
4597;SDS011;62772;48.646;8.906;2023-04-07T10:51:10;15.73;;;8.87;;
4597;SDS011;62772;48.646;8.906;2023-04-07T10:56:13;9.70;;;5.87;;
4597;SDS011;62772;48.646;8.906;2023-04-07T11:06:14;9.47;;;5.20;;
4597;SDS011;62772;48.646;8.906;2023-04-07T11:11:15;11.13;;;6.70;;
4597;SDS011;62772;48.646;8.906;2023-04-07T11:16:18;6.60;;;4.40;;
4597;SDS011;62772;48.646;8.906;2023-04-07T11:21:19;5.63;;;3.80;;
4597;SDS011;62772;48.646;8.906;2023-04-07T11:26:20;9.40;;;4.00;;
4597;SDS011;62772;48.646;8.906;2023-04-07T11:31:21;8.50;;;4.60;;
4597;SDS011;62772;48.646;8.906;2023-04-07T11:36:28;7.00;;;4.00;;
4597;SDS011;62772;48.646;8.906;2023-04-07T11:41:31;6.63;;;4.30;;
4597;SDS011;62772;48.646;8.906;2023-04-07T11:46:32;9.97;;;5.93;;
4597;SDS011;62772;48.646;8.906;2023-04-07T11:51:33;10.87;;;5.50;;
4597;SDS011;62772;48.646;8.906;2023-04-07T11:56:44;13.57;;;5.20;;
4597;SDS011;62772;48.646;8.906;2023-04-07T12:01:46;9.90;;;5.83;;
4597;SDS011;62772;48.646;8.906;2023-04-07T12:06:47;10.33;;;5.97;;
4597;SDS011;62772;48.646;8.906;2023-04-07T12:11:48;7.40;;;5.37;;
4597;SDS011;62772;48.646;8.906;2023-04-07T12:16:49;8.73;;;4.80;;
4597;SDS011;62772;48.646;8.906;2023-04-07T12:21:50;6.10;;;4.30;;
4597;SDS011;62772;48.646;8.906;2023-04-07T12:26:50;9.10;;;5.30;;
4597;SDS011;62772;48.646;8.906;2023-04-07T12:31:50;9.50;;;5.13;;
4597;SDS011;62772;48.646;8.906;2023-04-07T12:36:51;8.80;;;4.73;;
4597;SDS011;62772;48.646;8.906;2023-04-07T12:41:52;7.30;;;4.77;;
4597;SDS011;62772;48.646;8.906;2023-04-07T12:46:52;7.10;;;4.70;;
4597;SDS011;62772;48.646;8.906;2023-04-07T12:51:53;9.53;;;5.73;;
4597;SDS011;62772;48.646;8.906;2023-04-07T12:56:53;8.23;;;5.03;;
4597;SDS011;62772;48.646;8.906;2023-04-07T13:01:54;11.03;;;5.10;;
4597;SDS011;62772;48.646;8.906;2023-04-07T13:06:54;8.33;;;5.40;;
4597;SDS011;62772;48.646;8.906;2023-04-07T13:11:55;12.37;;;6.83;;
4597;SDS011;62772;48.646;8.906;2023-04-07T13:16:57;10.87;;;6.43;;
4597;SDS011;62772;48.646;8.906;2023-04-07T13:21:57;9.50;;;5.53;;
4597;SDS011;62772;48.646;8.906;2023-04-07T13:26:58;8.83;;;6.00;;
4597;SDS011;62772;48.646;8.906;2023-04-07T13:32:05;8.97;;;5.60;;
4597;SDS011;62772;48.646;8.906;2023-04-07T13:37:06;8.20;;;5.67;;
4597;SDS011;62772;48.646;8.906;2023-04-07T13:42:06;11.37;;;4.67;;
4597;SDS011;62772;48.646;8.906;2023-04-07T13:47:08;8.53;;;5.00;;
4597;SDS011;62772;48.646;8.906;2023-04-07T13:52:09;11.93;;;6.10;;
4597;SDS011;62772;48.646;8.906;2023-04-07T13:57:09;11.23;;;6.20;;
4597;SDS011;62772;48.646;8.906;2023-04-07T14:02:11;10.70;;;6.57;;
4597;SDS011;62772;48.646;8.906;2023-04-07T14:07:11;10.13;;;6.23;;
4597;SDS011;62772;48.646;8.906;2023-04-07T14:12:12;11.50;;;6.10;;
4597;SDS011;62772;48.646;8.906;2023-04-07T14:17:13;9.00;;;5.60;;
4597;SDS011;62772;48.646;8.906;2023-04-07T14:22:13;7.60;;;5.73;;
4597;SDS011;62772;48.646;8.906;2023-04-07T14:27:14;8.10;;;5.23;;
4597;SDS011;62772;48.646;8.906;2023-04-07T14:32:19;9.00;;;5.37;;
4597;SDS011;62772;48.646;8.906;2023-04-07T14:37:20;10.83;;;7.10;;
4597;SDS011;62772;48.646;8.906;2023-04-07T14:42:25;15.87;;;6.57;;
4597;SDS011;62772;48.646;8.906;2023-04-07T14:47:25;12.20;;;7.10;;
4597;SDS011;62772;48.646;8.906;2023-04-07T14:52:26;9.67;;;6.97;;
4597;SDS011;62772;48.646;8.906;2023-04-07T14:57:45;13.23;;;8.80;;
4597;SDS011;62772;48.646;8.906;2023-04-07T15:02:45;11.40;;;7.93;;
4597;SDS011;62772;48.646;8.906;2023-04-07T15:07:46;19.23;;;8.90;;
4597;SDS011;62772;48.646;8.906;2023-04-07T15:12:48;19.33;;;9.30;;
4597;SDS011;62772;48.646;8.906;2023-04-07T15:17:49;13.63;;;7.73;;
4597;SDS011;62772;48.646;8.906;2023-04-07T15:22:49;13.30;;;8.43;;
4597;SDS011;62772;48.646;8.906;2023-04-07T15:27:50;16.07;;;9.10;;
4597;SDS011;62772;48.646;8.906;2023-04-07T15:32:57;12.50;;;8.47;;
4597;SDS011;62772;48.646;8.906;2023-04-07T15:37:59;18.70;;;9.23;;
4597;SDS011;62772;48.646;8.906;2023-04-07T15:42:59;10.73;;;7.80;;
4597;SDS011;62772;48.646;8.906;2023-04-07T15:48:00;18.17;;;9.17;;
4597;SDS011;62772;48.646;8.906;2023-04-07T15:53:01;18.23;;;10.90;;
4597;SDS011;62772;48.646;8.906;2023-04-07T15:58:03;16.67;;;11.80;;
4597;SDS011;62772;48.646;8.906;2023-04-07T16:03:04;18.10;;;10.43;;
4597;SDS011;62772;48.646;8.906;2023-04-07T16:08:05;30.33;;;12.67;;
4597;SDS011;62772;48.646;8.906;2023-04-07T16:13:05;22.27;;;13.27;;
4597;SDS011;62772;48.646;8.906;2023-04-07T16:18:06;33.10;;;17.23;;
4597;SDS011;62772;48.646;8.906;2023-04-07T16:23:09;21.77;;;13.10;;
4597;SDS011;62772;48.646;8.906;2023-04-07T16:28:09;25.67;;;13.90;;
4597;SDS011;62772;48.646;8.906;2023-04-07T16:33:10;23.20;;;14.17;;
4597;SDS011;62772;48.646;8.906;2023-04-07T16:38:11;20.47;;;12.63;;
4597;SDS011;62772;48.646;8.906;2023-04-07T16:43:12;24.67;;;14.10;;
4597;SDS011;62772;48.646;8.906;2023-04-07T16:48:12;20.43;;;12.20;;
4597;SDS011;62772;48.646;8.906;2023-04-07T16:53:12;19.53;;;12.37;;
4597;SDS011;62772;48.646;8.906;2023-04-07T16:58:13;20.70;;;11.60;;
4597;SDS011;62772;48.646;8.906;2023-04-07T17:03:20;20.17;;;11.10;;
4597;SDS011;62772;48.646;8.906;2023-04-07T17:08:21;18.70;;;11.30;;
4597;SDS011;62772;48.646;8.906;2023-04-07T17:13:24;16.90;;;12.00;;
4597;SDS011;62772;48.646;8.906;2023-04-07T17:18:25;24.17;;;14.73;;
4597;SDS011;62772;48.646;8.906;2023-04-07T17:23:25;27.27;;;16.73;;
4597;SDS011;62772;48.646;8.906;2023-04-07T17:28:27;22.03;;;13.43;;
4597;SDS011;62772;48.646;8.906;2023-04-07T17:33:29;18.17;;;11.00;;
4597;SDS011;62772;48.646;8.906;2023-04-07T17:38:30;18.60;;;9.30;;
4597;SDS011;62772;48.646;8.906;2023-04-07T17:43:30;15.10;;;10.37;;
4597;SDS011;62772;48.646;8.906;2023-04-07T17:48:31;15.97;;;9.90;;
4597;SDS011;62772;48.646;8.906;2023-04-07T17:53:31;15.83;;;9.00;;
4597;SDS011;62772;48.646;8.906;2023-04-07T17:58:32;11.30;;;7.90;;
4597;SDS011;62772;48.646;8.906;2023-04-07T18:03:33;11.30;;;8.27;;
4597;SDS011;62772;48.646;8.906;2023-04-07T18:08:33;16.13;;;8.83;;
4597;SDS011;62772;48.646;8.906;2023-04-07T18:13:34;14.80;;;9.43;;
4597;SDS011;62772;48.646;8.906;2023-04-07T18:18:35;9.80;;;6.60;;
4597;SDS011;62772;48.646;8.906;2023-04-07T18:23:37;10.07;;;7.10;;
4597;SDS011;62772;48.646;8.906;2023-04-07T18:28:37;13.10;;;7.80;;
4597;SDS011;62772;48.646;8.906;2023-04-07T18:33:38;15.47;;;8.90;;
4597;SDS011;62772;48.646;8.906;2023-04-07T18:38:38;14.50;;;7.63;;
4597;SDS011;62772;48.646;8.906;2023-04-07T18:43:39;9.90;;;6.93;;
4597;SDS011;62772;48.646;8.906;2023-04-07T18:48:39;10.57;;;6.83;;
4597;SDS011;62772;48.646;8.906;2023-04-07T18:53:43;13.17;;;7.27;;
4597;SDS011;62772;48.646;8.906;2023-04-07T18:58:43;10.80;;;6.30;;
4597;SDS011;62772;48.646;8.906;2023-04-07T19:03:45;9.80;;;5.97;;
4597;SDS011;62772;48.646;8.906;2023-04-07T19:08:45;9.37;;;5.63;;
4597;SDS011;62772;48.646;8.906;2023-04-07T19:13:46;11.13;;;6.40;;
4597;SDS011;62772;48.646;8.906;2023-04-07T19:18:48;13.10;;;7.43;;
4597;SDS011;62772;48.646;8.906;2023-04-07T19:23:48;15.87;;;6.27;;
4597;SDS011;62772;48.646;8.906;2023-04-07T19:28:49;12.27;;;7.20;;
4597;SDS011;62772;48.646;8.906;2023-04-07T19:33:49;12.27;;;7.30;;
4597;SDS011;62772;48.646;8.906;2023-04-07T19:38:50;11.80;;;7.80;;
4597;SDS011;62772;48.646;8.906;2023-04-07T19:43:51;13.83;;;7.70;;
4597;SDS011;62772;48.646;8.906;2023-04-07T19:48:52;9.63;;;6.43;;
4597;SDS011;62772;48.646;8.906;2023-04-07T19:53:52;11.73;;;6.90;;
4597;SDS011;62772;48.646;8.906;2023-04-07T19:58:53;11.77;;;7.20;;
4597;SDS011;62772;48.646;8.906;2023-04-07T20:03:53;12.50;;;8.17;;
4597;SDS011;62772;48.646;8.906;2023-04-07T20:08:53;12.63;;;7.67;;
4597;SDS011;62772;48.646;8.906;2023-04-07T20:13:54;12.63;;;8.00;;
4597;SDS011;62772;48.646;8.906;2023-04-07T20:18:55;8.70;;;5.23;;
4597;SDS011;62772;48.646;8.906;2023-04-07T20:23:55;9.97;;;6.43;;
4597;SDS011;62772;48.646;8.906;2023-04-07T20:28:56;13.33;;;7.60;;
4597;SDS011;62772;48.646;8.906;2023-04-07T20:33:57;10.00;;;7.33;;
4597;SDS011;62772;48.646;8.906;2023-04-07T20:38:58;9.60;;;7.33;;
4597;SDS011;62772;48.646;8.906;2023-04-07T20:43:58;10.10;;;7.10;;
4597;SDS011;62772;48.646;8.906;2023-04-07T20:48:59;11.77;;;7.53;;
4597;SDS011;62772;48.646;8.906;2023-04-07T20:53:59;13.30;;;8.10;;
4597;SDS011;62772;48.646;8.906;2023-04-07T20:59:00;12.43;;;8.53;;
4597;SDS011;62772;48.646;8.906;2023-04-07T21:04:00;27.20;;;16.63;;
4597;SDS011;62772;48.646;8.906;2023-04-07T21:09:01;19.40;;;12.40;;
4597;SDS011;62772;48.646;8.906;2023-04-07T21:14:04;17.00;;;10.27;;
4597;SDS011;62772;48.646;8.906;2023-04-07T21:19:05;22.50;;;14.20;;
4597;SDS011;62772;48.646;8.906;2023-04-07T21:24:05;20.27;;;12.47;;
4597;SDS011;62772;48.646;8.906;2023-04-07T21:29:06;18.03;;;11.27;;
4597;SDS011;62772;48.646;8.906;2023-04-07T21:34:06;14.17;;;9.00;;
4597;SDS011;62772;48.646;8.906;2023-04-07T21:39:07;15.90;;;10.43;;
4597;SDS011;62772;48.646;8.906;2023-04-07T21:44:08;19.10;;;11.13;;
4597;SDS011;62772;48.646;8.906;2023-04-07T21:49:09;25.10;;;12.70;;
4597;SDS011;62772;48.646;8.906;2023-04-07T21:54:10;20.83;;;11.70;;
4597;SDS011;62772;48.646;8.906;2023-04-07T21:59:11;21.67;;;11.50;;
4597;SDS011;62772;48.646;8.906;2023-04-07T22:04:12;23.77;;;13.10;;
4597;SDS011;62772;48.646;8.906;2023-04-07T22:09:12;24.50;;;12.90;;
4597;SDS011;62772;48.646;8.906;2023-04-07T22:14:13;22.57;;;12.37;;
4597;SDS011;62772;48.646;8.906;2023-04-07T22:19:13;23.10;;;13.37;;
4597;SDS011;62772;48.646;8.906;2023-04-07T22:24:14;26.90;;;14.53;;
4597;SDS011;62772;48.646;8.906;2023-04-07T22:29:14;27.70;;;14.70;;
4597;SDS011;62772;48.646;8.906;2023-04-07T22:34:15;31.60;;;13.73;;
4597;SDS011;62772;48.646;8.906;2023-04-07T22:39:15;28.17;;;14.00;;
4597;SDS011;62772;48.646;8.906;2023-04-07T22:44:16;27.17;;;13.60;;
4597;SDS011;62772;48.646;8.906;2023-04-07T22:49:16;27.20;;;14.67;;
4597;SDS011;62772;48.646;8.906;2023-04-07T22:54:16;24.83;;;14.07;;
4597;SDS011;62772;48.646;8.906;2023-04-07T22:59:17;29.37;;;14.87;;
4597;SDS011;62772;48.646;8.906;2023-04-07T23:04:19;27.90;;;14.33;;
4597;SDS011;62772;48.646;8.906;2023-04-07T23:09:19;29.50;;;15.40;;
4597;SDS011;62772;48.646;8.906;2023-04-07T23:14:20;26.70;;;14.57;;
4597;SDS011;62772;48.646;8.906;2023-04-07T23:19:20;27.70;;;14.20;;
4597;SDS011;62772;48.646;8.906;2023-04-07T23:24:21;34.83;;;15.53;;
4597;SDS011;62772;48.646;8.906;2023-04-07T23:29:21;36.17;;;16.20;;
4597;SDS011;62772;48.646;8.906;2023-04-07T23:34:22;32.03;;;16.40;;
4597;SDS011;62772;48.646;8.906;2023-04-07T23:39:22;26.67;;;16.40;;
4597;SDS011;62772;48.646;8.906;2023-04-07T23:44:23;28.77;;;16.30;;
4597;SDS011;62772;48.646;8.906;2023-04-07T23:49:23;30.93;;;15.00;;
4597;SDS011;62772;48.646;8.906;2023-04-07T23:54:23;31.60;;;15.93;;
4597;SDS011;62772;48.646;8.906;2023-04-07T23:59:24;31.27;;;15.43;;
